Time;durP1;ratioP1;P1;durP2;ratioP2;P2;SDS_P1;SDS_P2;PMS_P1;PMS_P2;Temp;Humidity;BMP_temperature;BMP_pressure;BME280_temperature;BME280_humidity;BME280_pressure;Samples;Min_cycle;Max_cycle;Signal;HPM_P1;HPM_P2
2023/01/09 00:01:18;;;;;;;34.28;3.83;;;;;;;;;;5019403;28;20049;-73
2023/01/09 00:03:43;;;;;;;18.83;3.08;;;;;;;;;;5019471;28;20152;-74
2023/01/09 00:06:09;;;;;;;28.80;3.80;;;;;;;;;;5021293;28;20500;-73
2023/01/09 00:08:34;;;;;;;30.52;4.25;;;;;;;;;;5021010;28;20029;-73
2023/01/09 00:11:00;;;;;;;25.92;4.43;;;;;;;;;;5021882;28;20040;-73
2023/01/09 00:13:25;;;;;;;26.73;3.97;;;;;;;;;;4997803;28;20649;-73
2023/01/09 00:15:50;;;;;;;24.40;3.10;;;;;;;;;;5004917;28;20045;-72
2023/01/09 00:18:16;;;;;;;29.00;4.03;;;;;;;;;;5002661;28;20441;-73
2023/01/09 00:20:41;;;;;;;32.50;4.03;;;;;;;;;;5006101;28;20080;-72
2023/01/09 00:23:06;;;;;;;28.83;4.10;;;;;;;;;;5002438;28;20037;-71
2023/01/09 00:25:32;;;;;;;27.02;3.60;;;;;;;;;;5005204;28;20556;-72
2023/01/09 00:27:58;;;;;;;24.88;3.90;;;;;;;;;;5005274;28;20032;-72
2023/01/09 00:30:23;;;;;;;42.92;4.85;;;;;;;;;;5003136;28;20064;-72
2023/01/09 00:32:48;;;;;;;35.45;4.55;;;;;;;;;;5019226;28;20132;-72
2023/01/09 00:35:15;;;;;;;25.90;4.43;;;;;;;;;;5005007;28;20532;-72
2023/01/09 00:37:41;;;;;;;31.35;4.53;;;;;;;;;;5005362;28;20038;-72
2023/01/09 00:40:06;;;;;;;38.90;5.75;;;;;;;;;;5004214;28;20512;-72
2023/01/09 00:42:36;;;;;;;43.03;4.30;;;;;;;;;;5004425;28;20036;-72
2023/01/09 00:45:02;;;;;;;41.28;5.97;;;;;;;;;;5004763;28;20393;-72
2023/01/09 00:47:29;;;;;;;37.30;4.53;;;;;;;;;;5019757;28;20094;-72
2023/01/09 00:49:57;;;;;;;27.65;3.72;;;;;;;;;;5024608;28;20036;-73
2023/01/09 00:52:23;;;;;;;29.65;4.25;;;;;;;;;;5022231;28;20033;-73
2023/01/09 00:54:48;;;;;;;28.65;3.78;;;;;;;;;;5022395;28;20155;-73
2023/01/09 00:57:14;;;;;;;26.23;3.88;;;;;;;;;;5023590;28;20434;-73
2023/01/09 00:59:42;;;;;;;31.48;4.28;;;;;;;;;;5024365;28;20226;-72
2023/01/09 01:02:10;;;;;;;39.00;5.03;;;;;;;;;;5023555;28;20545;-73
2023/01/09 01:07:37;;;;;;;35.58;4.80;;;;;;;;;;5024487;28;20357;-73
2023/01/09 01:10:07;;;;;;;36.45;4.90;;;;;;;;;;5024032;28;20029;-72
2023/01/09 01:12:35;;;;;;;26.25;3.58;;;;;;;;;;5013401;28;20129;-71
2023/01/09 01:15:03;;;;;;;29.60;4.70;;;;;;;;;;5002157;28;20048;-72
2023/01/09 01:17:28;;;;;;;23.95;3.63;;;;;;;;;;5004309;28;20160;-72
2023/01/09 01:19:56;;;;;;;29.50;3.50;;;;;;;;;;5003586;28;20366;-72
2023/01/09 01:22:21;;;;;;;30.08;4.75;;;;;;;;;;5002344;28;20045;-73
2023/01/09 01:24:47;;;;;;;43.15;7.00;;;;;;;;;;5000648;28;20334;-72
2023/01/09 01:27:12;;;;;;;41.58;8.27;;;;;;;;;;5003932;28;20551;-72
2023/01/09 01:29:37;;;;;;;46.53;8.85;;;;;;;;;;5001867;28;20048;-72
2023/01/09 01:32:03;;;;;;;40.03;6.88;;;;;;;;;;5003702;28;20034;-72
2023/01/09 01:34:28;;;;;;;33.20;7.93;;;;;;;;;;5004096;28;20053;-72
2023/01/09 01:36:54;;;;;;;41.33;7.50;;;;;;;;;;5003584;28;20307;-73
2023/01/09 01:39:22;;;;;;;27.27;7.35;;;;;;;;;;5003754;28;20283;-73
2023/01/09 01:41:47;;;;;;;43.22;7.95;;;;;;;;;;5003949;28;20064;-73
2023/01/09 01:44:31;;;;;;;29.60;3.95;;;;;;;;;;5003822;28;20030;-73
2023/01/09 01:46:56;;;;;;;44.00;13.73;;;;;;;;;;4997501;28;20128;-73
2023/01/09 01:49:21;;;;;;;36.28;10.02;;;;;;;;;;4987787;28;20150;-73
2023/01/09 01:51:49;;;;;;;36.20;10.27;;;;;;;;;;5002865;28;20046;-73
2023/01/09 01:54:17;;;;;;;34.00;9.68;;;;;;;;;;4994587;28;20558;-73
2023/01/09 01:56:44;;;;;;;41.63;8.18;;;;;;;;;;4983424;28;20457;-73
2023/01/09 01:59:15;;;;;;;29.02;7.35;;;;;;;;;;4983498;28;20553;-73
2023/01/09 02:01:42;;;;;;;25.42;6.90;;;;;;;;;;4983928;28;20529;-72
2023/01/09 02:04:08;;;;;;;21.27;6.38;;;;;;;;;;4983736;28;20030;-72
2023/01/09 02:06:34;;;;;;;36.65;9.93;;;;;;;;;;4981514;28;20029;-72
2023/01/09 02:09:03;;;;;;;30.13;8.90;;;;;;;;;;4983663;28;20466;-72
2023/01/09 02:11:28;;;;;;;31.90;12.45;;;;;;;;;;4992313;28;20044;-72
2023/01/09 02:13:56;;;;;;;24.80;6.47;;;;;;;;;;5003221;28;20084;-72
2023/01/09 02:16:30;;;;;;;32.20;5.43;;;;;;;;;;5033828;28;20079;-73
2023/01/09 02:19:04;;;;;;;24.92;6.32;;;;;;;;;;5002262;28;20611;-72
2023/01/09 02:21:39;;;;;;;22.10;6.57;;;;;;;;;;5003116;28;20730;-72
2023/01/09 02:24:04;;;;;;;17.77;5.88;;;;;;;;;;5002481;28;20087;-72
2023/01/09 02:26:50;;;;;;;20.52;6.25;;;;;;;;;;5003354;28;20037;-72
2023/01/09 02:29:19;;;;;;;18.50;4.90;;;;;;;;;;5000443;28;20052;-72
2023/01/09 02:32:04;;;;;;;22.27;6.38;;;;;;;;;;5002828;28;20652;-72
2023/01/09 02:34:39;;;;;;;16.85;4.97;;;;;;;;;;5002357;28;20131;-72
2023/01/09 02:37:11;;;;;;;18.30;5.40;;;;;;;;;;5000329;28;20045;-72
2023/01/09 02:39:58;;;;;;;17.17;6.05;;;;;;;;;;5002725;28;20052;-72
2023/01/09 02:42:24;;;;;;;13.20;4.55;;;;;;;;;;5000965;28;20116;-72
2023/01/09 02:44:50;;;;;;;19.33;5.65;;;;;;;;;;5002804;28;20034;-71
2023/01/09 02:47:19;;;;;;;13.68;4.15;;;;;;;;;;5016647;28;20443;-72
2023/01/09 02:49:53;;;;;;;18.20;4.72;;;;;;;;;;5022065;28;20517;-72
2023/01/09 02:52:31;;;;;;;17.42;5.10;;;;;;;;;;5021988;28;20064;-72
2023/01/09 02:54:59;;;;;;;14.75;5.63;;;;;;;;;;5019444;28;20497;-71
2023/01/09 02:57:40;;;;;;;22.27;6.80;;;;;;;;;;5021505;28;20442;-73
2023/01/09 03:00:26;;;;;;;18.30;5.72;;;;;;;;;;5020114;28;20432;-72
2023/01/09 03:02:56;;;;;;;17.17;5.88;;;;;;;;;;5021216;28;20044;-72
2023/01/09 03:05:29;;;;;;;13.80;5.95;;;;;;;;;;5021614;28;20033;-73
2023/01/09 03:08:02;;;;;;;19.25;5.75;;;;;;;;;;5021672;28;20044;-72
2023/01/09 03:10:49;;;;;;;17.25;5.80;;;;;;;;;;5007495;28;20656;-72
2023/01/09 03:13:16;;;;;;;19.15;5.70;;;;;;;;;;5002206;28;20365;-74
2023/01/09 03:15:43;;;;;;;12.23;5.72;;;;;;;;;;5000714;28;20726;-71
2023/01/09 03:18:12;;;;;;;16.80;6.32;;;;;;;;;;5033294;28;20405;-72
2023/01/09 03:20:38;;;;;;;14.02;6.13;;;;;;;;;;5032896;28;20065;-72
2023/01/09 03:23:05;;;;;;;17.55;5.97;;;;;;;;;;4999825;28;20591;-73
2023/01/09 03:25:30;;;;;;;17.60;5.75;;;;;;;;;;5001833;28;20041;-75
2023/01/09 03:27:58;;;;;;;19.65;7.00;;;;;;;;;;5002992;28;20515;-76
2023/01/09 03:30:25;;;;;;;24.75;7.90;;;;;;;;;;5002935;28;20026;-75
2023/01/09 03:32:50;;;;;;;17.13;6.20;;;;;;;;;;5003508;28;20051;-75
2023/01/09 03:35:17;;;;;;;16.58;5.40;;;;;;;;;;5002196;28;20056;-75
2023/01/09 03:37:43;;;;;;;19.35;6.43;;;;;;;;;;5002930;28;20029;-75
2023/01/09 03:40:13;;;;;;;16.98;6.22;;;;;;;;;;5002935;28;20501;-75
2023/01/09 03:42:38;;;;;;;16.17;5.40;;;;;;;;;;5001716;28;20034;-72
2023/01/09 03:45:04;;;;;;;15.75;5.10;;;;;;;;;;5000310;28;20040;-72
2023/01/09 03:47:31;;;;;;;18.60;5.40;;;;;;;;;;5015105;28;20433;-72
2023/01/09 03:49:57;;;;;;;16.65;5.60;;;;;;;;;;5018977;28;20130;-73
2023/01/09 03:52:28;;;;;;;22.35;7.38;;;;;;;;;;5021126;28;20491;-74
2023/01/09 03:54:58;;;;;;;17.83;6.72;;;;;;;;;;5021606;28;20048;-75
2023/01/09 03:57:23;;;;;;;18.25;7.63;;;;;;;;;;5020610;28;20760;-75
2023/01/09 03:59:49;;;;;;;14.85;6.18;;;;;;;;;;5020494;28;20048;-74
2023/01/09 04:02:14;;;;;;;21.83;7.32;;;;;;;;;;5023206;28;20037;-75
2023/01/09 04:04:39;;;;;;;16.02;6.22;;;;;;;;;;5022414;28;20025;-74
2023/01/09 04:07:04;;;;;;;20.33;7.90;;;;;;;;;;5020944;28;20662;-75
2023/01/09 04:09:30;;;;;;;21.35;8.63;;;;;;;;;;5005564;28;20267;-74
2023/01/09 04:11:55;;;;;;;20.80;7.68;;;;;;;;;;5002743;28;20044;-75
2023/01/09 04:14:20;;;;;;;20.80;9.38;;;;;;;;;;5001756;28;20087;-75
2023/01/09 04:16:48;;;;;;;32.72;14.73;;;;;;;;;;5003011;28;20498;-75
2023/01/09 04:19:16;;;;;;;15.95;5.88;;;;;;;;;;4999893;28;20056;-75
2023/01/09 04:21:41;;;;;;;20.05;7.30;;;;;;;;;;5002740;28;20193;-74
2023/01/09 04:24:07;;;;;;;20.13;9.38;;;;;;;;;;4999967;28;20038;-74
2023/01/09 04:26:32;;;;;;;20.80;8.65;;;;;;;;;;5017068;28;20123;-75
2023/01/09 04:28:57;;;;;;;18.40;7.15;;;;;;;;;;5000231;28;20463;-74
2023/01/09 04:31:23;;;;;;;14.50;6.43;;;;;;;;;;5002752;28;20072;-75
2023/01/09 04:33:50;;;;;;;22.40;7.63;;;;;;;;;;5016357;28;20132;-74
2023/01/09 04:36:16;;;;;;;20.85;9.18;;;;;;;;;;5002652;28;20055;-74
2023/01/09 04:38:43;;;;;;;19.98;7.78;;;;;;;;;;5001997;28;20488;-75
2023/01/09 04:41:09;;;;;;;26.05;9.68;;;;;;;;;;5002215;28;20029;-74
2023/01/09 04:43:35;;;;;;;30.25;10.32;;;;;;;;;;5001873;28;20052;-74
2023/01/09 04:46:01;;;;;;;31.08;11.90;;;;;;;;;;5006136;28;20036;-74
2023/01/09 04:48:27;;;;;;;34.67;10.90;;;;;;;;;;5021070;28;20052;-74
2023/01/09 04:50:52;;;;;;;28.38;12.75;;;;;;;;;;5022978;28;20117;-75
2023/01/09 04:53:18;;;;;;;26.95;10.27;;;;;;;;;;5021851;28;20025;-73
2023/01/09 04:55:44;;;;;;;19.02;9.38;;;;;;;;;;5022798;28;20128;-75
2023/01/09 04:58:12;;;;;;;23.10;9.55;;;;;;;;;;5023550;28;20036;-73
2023/01/09 05:00:37;;;;;;;25.65;10.15;;;;;;;;;;5023474;28;20666;-73
2023/01/09 05:03:03;;;;;;;18.73;7.65;;;;;;;;;;5026407;28;20036;-73
2023/01/09 05:05:29;;;;;;;13.52;7.30;;;;;;;;;;5025754;28;20040;-74
2023/01/09 05:07:54;;;;;;;20.75;7.65;;;;;;;;;;5014890;28;20033;-74
2023/01/09 05:10:19;;;;;;;21.42;8.15;;;;;;;;;;5008608;28;20643;-75
2023/01/09 05:12:44;;;;;;;16.15;7.00;;;;;;;;;;5008403;28;20033;-75
2023/01/09 05:15:10;;;;;;;19.48;7.80;;;;;;;;;;5009480;28;20529;-75
2023/01/09 05:17:38;;;;;;;15.43;7.50;;;;;;;;;;5006930;28;20112;-74
2023/01/09 05:20:03;;;;;;;21.13;9.05;;;;;;;;;;5006066;28;20045;-74
2023/01/09 05:22:29;;;;;;;25.00;11.10;;;;;;;;;;5007236;28;20044;-74
2023/01/09 05:24:55;;;;;;;15.45;8.23;;;;;;;;;;5007618;28;20037;-74
2023/01/09 05:27:20;;;;;;;22.38;9.00;;;;;;;;;;5003964;28;20040;-73
2023/01/09 05:29:46;;;;;;;19.67;8.48;;;;;;;;;;5004722;28;20025;-73
2023/01/09 05:32:11;;;;;;;20.88;8.43;;;;;;;;;;5003903;28;20129;-73
2023/01/09 05:34:36;;;;;;;25.08;9.15;;;;;;;;;;5004587;28;20096;-74
2023/01/09 05:37:01;;;;;;;31.23;10.52;;;;;;;;;;5006486;28;20607;-74
2023/01/09 05:39:27;;;;;;;21.30;8.88;;;;;;;;;;4994896;28;20037;-74
2023/01/09 05:41:55;;;;;;;24.23;9.25;;;;;;;;;;5020086;28;20063;-74
2023/01/09 05:44:20;;;;;;;21.85;8.43;;;;;;;;;;4971552;28;20159;-73
2023/01/09 05:46:45;;;;;;;26.52;9.77;;;;;;;;;;5010203;28;20087;-74
2023/01/09 05:49:13;;;;;;;34.75;11.50;;;;;;;;;;5022332;28;20426;-74
2023/01/09 05:51:38;;;;;;;24.55;9.75;;;;;;;;;;5023690;28;20398;-74
2023/01/09 05:54:06;;;;;;;27.40;9.25;;;;;;;;;;5022728;28;20689;-75
2023/01/09 05:56:31;;;;;;;24.73;8.43;;;;;;;;;;5025902;28;20551;-75
2023/01/09 05:58:56;;;;;;;26.20;10.43;;;;;;;;;;5026143;28;20032;-74
2023/01/09 06:01:22;;;;;;;30.92;10.15;;;;;;;;;;5029782;28;20075;-74
2023/01/09 06:03:49;;;;;;;26.35;8.68;;;;;;;;;;5029684;28;20090;-74
2023/01/09 06:06:15;;;;;;;21.58;9.60;;;;;;;;;;5031124;28;20747;-74
2023/01/09 06:08:42;;;;;;;20.23;7.95;;;;;;;;;;5028847;28;20137;-75
2023/01/09 06:11:07;;;;;;;23.17;7.85;;;;;;;;;;5031433;28;20194;-74
2023/01/09 06:13:33;;;;;;;22.30;8.05;;;;;;;;;;5030187;28;20468;-75
2023/01/09 06:15:58;;;;;;;28.08;9.65;;;;;;;;;;5024971;28;20057;-75
2023/01/09 06:18:23;;;;;;;24.90;8.20;;;;;;;;;;5023253;28;20064;-75
2023/01/09 06:20:49;;;;;;;25.52;8.45;;;;;;;;;;5021083;28;20044;-75
2023/01/09 06:23:14;;;;;;;20.70;7.80;;;;;;;;;;5023277;28;20040;-75
2023/01/09 06:25:40;;;;;;;35.35;12.05;;;;;;;;;;5025421;28;20076;-74
2023/01/09 06:28:08;;;;;;;29.58;9.32;;;;;;;;;;5023097;28;20524;-73
2023/01/09 06:30:33;;;;;;;32.42;10.02;;;;;;;;;;5023982;28;20449;-74
2023/01/09 06:32:59;;;;;;;28.50;10.30;;;;;;;;;;5022938;28;20057;-74
2023/01/09 06:35:24;;;;;;;19.15;8.23;;;;;;;;;;5022793;28;20132;-74
2023/01/09 06:37:49;;;;;;;25.13;9.50;;;;;;;;;;5021980;28;20032;-73
2023/01/09 06:40:16;;;;;;;28.38;9.70;;;;;;;;;;5023770;28;20072;-74
2023/01/09 06:42:45;;;;;;;25.42;9.43;;;;;;;;;;5022494;28;20551;-74
2023/01/09 06:45:14;;;;;;;33.22;10.75;;;;;;;;;;5027043;28;20459;-74
2023/01/09 06:47:39;;;;;;;26.27;10.60;;;;;;;;;;5028999;28;20539;-74
2023/01/09 06:50:05;;;;;;;28.63;10.48;;;;;;;;;;5028159;28;20047;-74
2023/01/09 06:52:33;;;;;;;29.58;10.65;;;;;;;;;;5027011;28;20481;-74
2023/01/09 06:54:58;;;;;;;30.15;12.55;;;;;;;;;;5022196;28;20047;-75
2023/01/09 06:57:26;;;;;;;30.02;12.35;;;;;;;;;;5024061;28;20029;-74
2023/01/09 06:59:52;;;;;;;33.30;12.05;;;;;;;;;;5006223;28;20029;-75
2023/01/09 07:02:18;;;;;;;20.08;10.40;;;;;;;;;;5023224;28;20029;-74
2023/01/09 07:04:44;;;;;;;23.23;10.95;;;;;;;;;;5022220;28;20037;-75
2023/01/09 07:07:09;;;;;;;21.55;10.65;;;;;;;;;;5022650;28;20044;-74
2023/01/09 07:09:34;;;;;;;21.95;11.35;;;;;;;;;;5022051;28;20543;-74
2023/01/09 07:12:02;;;;;;;23.48;12.55;;;;;;;;;;5020258;28;20042;-73
2023/01/09 07:14:28;;;;;;;25.27;13.63;;;;;;;;;;5021347;28;20036;-74
2023/01/09 07:16:53;;;;;;;18.05;12.65;;;;;;;;;;5020448;28;20044;-74
2023/01/09 07:19:18;;;;;;;26.15;13.63;;;;;;;;;;5022936;28;20327;-73
2023/01/09 07:21:44;;;;;;;21.42;14.30;;;;;;;;;;5024423;28;20036;-74
2023/01/09 07:24:11;;;;;;;26.38;15.32;;;;;;;;;;5022029;28;20045;-75
2023/01/09 07:26:36;;;;;;;27.17;15.73;;;;;;;;;;5024161;28;20538;-74
2023/01/09 07:29:02;;;;;;;26.02;15.40;;;;;;;;;;5021925;28;20290;-72
2023/01/09 07:31:28;;;;;;;32.60;16.08;;;;;;;;;;5021807;28;20592;-73
2023/01/09 07:33:53;;;;;;;24.63;15.20;;;;;;;;;;5019831;28;20029;-73
2023/01/09 07:36:18;;;;;;;29.13;15.63;;;;;;;;;;5023856;28;20558;-74
2023/01/09 07:38:44;;;;;;;27.23;15.82;;;;;;;;;;5022729;28;20902;-73
2023/01/09 07:41:09;;;;;;;27.80;16.50;;;;;;;;;;5025287;28;20501;-74
2023/01/09 07:43:35;;;;;;;26.23;14.77;;;;;;;;;;5023597;28;20021;-74
2023/01/09 07:46:00;;;;;;;26.20;15.73;;;;;;;;;;5025002;28;20533;-74
2023/01/09 07:48:28;;;;;;;31.88;16.48;;;;;;;;;;5022728;28;20021;-75
2023/01/09 07:50:53;;;;;;;28.10;16.95;;;;;;;;;;5024323;28;20040;-74
2023/01/09 07:53:18;;;;;;;31.70;17.08;;;;;;;;;;5025662;28;20057;-75
2023/01/09 07:55:44;;;;;;;28.23;17.83;;;;;;;;;;5023987;28;20045;-73
2023/01/09 07:58:09;;;;;;;29.80;17.85;;;;;;;;;;5023523;28;20029;-73
2023/01/09 08:00:34;;;;;;;30.05;17.70;;;;;;;;;;5022723;28;20037;-73
2023/01/09 08:03:02;;;;;;;31.23;19.23;;;;;;;;;;5003150;28;20040;-72
2023/01/09 08:05:27;;;;;;;29.60;17.48;;;;;;;;;;5021243;28;20795;-73
2023/01/09 08:07:52;;;;;;;35.97;20.17;;;;;;;;;;5021711;28;20098;-74
2023/01/09 08:10:19;;;;;;;32.45;18.40;;;;;;;;;;5022155;28;20033;-73
2023/01/09 08:12:48;;;;;;;31.10;18.17;;;;;;;;;;5020602;28;20173;-73
2023/01/09 08:15:14;;;;;;;33.72;19.98;;;;;;;;;;5022281;28;20051;-73
2023/01/09 08:17:40;;;;;;;33.70;20.20;;;;;;;;;;5022188;28;20037;-72
2023/01/09 08:20:06;;;;;;;36.70;20.25;;;;;;;;;;5020699;28;20713;-73
2023/01/09 08:22:34;;;;;;;33.97;20.52;;;;;;;;;;5023446;28;20436;-72
2023/01/09 08:25:00;;;;;;;33.42;20.58;;;;;;;;;;5029977;28;20359;-74
2023/01/09 08:27:25;;;;;;;34.95;19.25;;;;;;;;;;5028728;28;20033;-74
2023/01/09 08:29:53;;;;;;;33.35;19.98;;;;;;;;;;4994875;28;20284;-74
2023/01/09 08:32:18;;;;;;;40.35;24.88;;;;;;;;;;5023177;28;20033;-73
2023/01/09 08:34:46;;;;;;;34.95;20.70;;;;;;;;;;5022172;28;20295;-73
2023/01/09 08:37:11;;;;;;;31.77;19.38;;;;;;;;;;5026810;28;20037;-73
2023/01/09 08:39:38;;;;;;;38.63;20.55;;;;;;;;;;5027184;28;20043;-73
2023/01/09 08:47:33;;;;;;;28.83;15.38;;;;;;;;;;5039015;28;20531;-72
2023/01/09 08:49:58;;;;;;;30.20;15.80;;;;;;;;;;5044002;28;20110;-72
2023/01/09 08:52:29;;;;;;;24.98;14.45;;;;;;;;;;5046475;28;20623;-72
2023/01/09 08:54:54;;;;;;;26.60;14.68;;;;;;;;;;5044136;28;20040;-72
2023/01/09 08:57:22;;;;;;;27.38;14.82;;;;;;;;;;5043536;28;20288;-72
2023/01/09 08:59:47;;;;;;;27.00;14.13;;;;;;;;;;5046595;28;20037;-73
2023/01/09 09:02:13;;;;;;;30.85;15.30;;;;;;;;;;5032864;28;20059;-73
2023/01/09 09:04:41;;;;;;;27.48;14.80;;;;;;;;;;5024981;28;20342;-72
2023/01/09 09:07:07;;;;;;;36.20;16.33;;;;;;;;;;5024077;28;20594;-72
2023/01/09 09:09:32;;;;;;;29.08;14.85;;;;;;;;;;5025371;28;20033;-73
2023/01/09 09:11:57;;;;;;;32.45;14.23;;;;;;;;;;5024853;28;20123;-73
2023/01/09 09:17:07;;;;;;;30.20;13.20;;;;;;;;;;5023494;28;20086;-72
2023/01/09 09:19:32;;;;;;;27.52;10.27;;;;;;;;;;5023114;28;20040;-72
2023/01/09 09:21:57;;;;;;;33.22;9.90;;;;;;;;;;5022049;28;20064;-72
2023/01/09 09:24:23;;;;;;;25.00;8.55;;;;;;;;;;5022219;28;20105;-73
2023/01/09 09:26:51;;;;;;;14.80;4.35;;;;;;;;;;5024148;28;20344;-73
2023/01/09 09:29:17;;;;;;;25.95;3.70;;;;;;;;;;5030898;28;20048;-74
2023/01/09 09:31:42;;;;;;;25.15;4.18;;;;;;;;;;5032788;28;20033;-74
2023/01/09 09:34:09;;;;;;;26.00;4.13;;;;;;;;;;5039267;28;20033;-73
2023/01/09 09:36:34;;;;;;;27.00;3.72;;;;;;;;;;5032108;28;20428;-73
2023/01/09 09:39:01;;;;;;;28.38;3.53;;;;;;;;;;5021753;28;20500;-71
2023/01/09 09:47:08;;;;;;;30.67;4.28;;;;;;;;;;5035253;28;20109;-73
2023/01/09 09:50:03;;;;;;;26.65;4.40;;;;;;;;;;5024350;28;20865;-71
2023/01/09 09:52:33;;;;;;;19.73;3.42;;;;;;;;;;5005564;28;20021;-72
2023/01/09 09:55:01;;;;;;;25.08;3.38;;;;;;;;;;5042228;28;20056;-72
2023/01/09 09:57:33;;;;;;;19.55;3.40;;;;;;;;;;5043754;28;20047;-73
2023/01/09 10:00:03;;;;;;;23.33;3.22;;;;;;;;;;5038513;28;20029;-73
2023/01/09 10:02:31;;;;;;;25.63;2.90;;;;;;;;;;5024874;28;20033;-76
2023/01/09 10:05:29;;;;;;;19.92;2.67;;;;;;;;;;5021740;28;20289;-73
2023/01/09 10:07:56;;;;;;;29.00;4.15;;;;;;;;;;4977118;28;20041;-74
2023/01/09 10:10:30;;;;;;;22.27;2.70;;;;;;;;;;5054708;28;20222;-73
2023/01/09 10:12:57;;;;;;;27.90;3.15;;;;;;;;;;5022438;28;20032;-74
2023/01/09 10:15:46;;;;;;;25.73;3.13;;;;;;;;;;5023833;28;20076;-72
2023/01/09 10:18:14;;;;;;;28.63;4.20;;;;;;;;;;5014904;28;20517;-73
2023/01/09 10:20:42;;;;;;;23.20;3.20;;;;;;;;;;5023154;28;20581;-74
2023/01/09 10:23:14;;;;;;;24.67;3.72;;;;;;;;;;5022984;28;20124;-74
2023/01/09 10:25:43;;;;;;;19.58;3.17;;;;;;;;;;5020480;28;20029;-73
2023/01/09 10:28:17;;;;;;;22.52;3.05;;;;;;;;;;5022808;28;20321;-73
2023/01/09 10:30:49;;;;;;;21.15;3.60;;;;;;;;;;5021405;28;20033;-74
2023/01/09 10:33:22;;;;;;;22.52;3.83;;;;;;;;;;5022455;28;20060;-73
2023/01/09 10:35:48;;;;;;;24.50;3.38;;;;;;;;;;5022372;28;20052;-73
2023/01/09 10:38:15;;;;;;;24.33;3.50;;;;;;;;;;5023019;28;20025;-74
2023/01/09 10:40:44;;;;;;;19.27;3.20;;;;;;;;;;5023281;28;20494;-74
2023/01/09 10:43:24;;;;;;;23.92;2.75;;;;;;;;;;5022435;28;20033;-74
2023/01/09 10:45:53;;;;;;;21.92;3.45;;;;;;;;;;5002427;28;20291;-74
2023/01/09 10:48:21;;;;;;;25.23;3.90;;;;;;;;;;5000613;28;20029;-74
2023/01/09 10:50:46;;;;;;;20.95;3.45;;;;;;;;;;5002839;28;20476;-73
2023/01/09 10:53:25;;;;;;;19.55;3.00;;;;;;;;;;5002766;28;20128;-72
2023/01/09 10:55:54;;;;;;;17.23;4.60;;;;;;;;;;5020808;28;20037;-73
2023/01/09 10:58:20;;;;;;;22.35;4.93;;;;;;;;;;5021506;28;20048;-74
2023/01/09 11:00:46;;;;;;;24.08;4.05;;;;;;;;;;5020565;28;20087;-73
2023/01/09 11:03:13;;;;;;;27.55;3.92;;;;;;;;;;5019361;28;20025;-74
2023/01/09 11:05:38;;;;;;;25.40;4.70;;;;;;;;;;5022369;28;20327;-73
2023/01/09 11:08:04;;;;;;;21.92;4.13;;;;;;;;;;5021925;28;20033;-72
2023/01/09 11:10:55;;;;;;;26.92;3.65;;;;;;;;;;5022815;28;20036;-73
2023/01/09 11:13:28;;;;;;;20.25;3.70;;;;;;;;;;5019336;28;20434;-73
2023/01/09 11:16:26;;;;;;;20.85;4.10;;;;;;;;;;5019485;28;20633;-72
2023/01/09 11:18:54;;;;;;;22.55;4.05;;;;;;;;;;4987239;28;20025;-73
2023/01/09 11:21:28;;;;;;;29.23;4.05;;;;;;;;;;5021646;28;20048;-74
2023/01/09 11:23:56;;;;;;;27.40;4.40;;;;;;;;;;5019936;28;20568;-73
2023/01/09 11:26:25;;;;;;;27.88;4.80;;;;;;;;;;5021701;28;20383;-72
2023/01/09 11:29:05;;;;;;;21.38;3.55;;;;;;;;;;5021441;28;20132;-73
2023/01/09 11:31:30;;;;;;;22.60;4.88;;;;;;;;;;5022028;28;20392;-74
2023/01/09 11:33:56;;;;;;;21.55;3.97;;;;;;;;;;5022219;28;20075;-72
2023/01/09 11:36:23;;;;;;;28.13;3.90;;;;;;;;;;5021305;28;20455;-73
2023/01/09 11:38:56;;;;;;;22.27;3.80;;;;;;;;;;5022115;28;20609;-75
2023/01/09 11:41:23;;;;;;;26.63;4.10;;;;;;;;;;5007360;28;20564;-75
2023/01/09 11:43:50;;;;;;;25.95;4.47;;;;;;;;;;5003737;28;20033;-74
2023/01/09 11:46:48;;;;;;;27.98;4.72;;;;;;;;;;5002147;28;20044;-75
2023/01/09 11:49:13;;;;;;;24.02;4.15;;;;;;;;;;4968402;28;20268;-75
2023/01/09 11:51:39;;;;;;;20.70;4.28;;;;;;;;;;5005265;28;20029;-74
2023/01/09 11:54:14;;;;;;;23.98;3.67;;;;;;;;;;5003804;28;20025;-73
2023/01/09 11:56:39;;;;;;;32.65;5.13;;;;;;;;;;4986498;28;20076;-74
2023/01/09 11:59:17;;;;;;;30.35;3.72;;;;;;;;;;5006826;28;20033;-74
2023/01/09 12:01:42;;;;;;;24.48;3.70;;;;;;;;;;4984179;28;20025;-73
2023/01/09 12:04:12;;;;;;;20.25;3.78;;;;;;;;;;5005321;28;20049;-75
2023/01/09 12:06:56;;;;;;;21.33;3.83;;;;;;;;;;5005548;28;20526;-75
2023/01/09 12:09:29;;;;;;;27.45;4.13;;;;;;;;;;5005519;28;20025;-76
2023/01/09 12:12:05;;;;;;;20.98;3.72;;;;;;;;;;5009778;28;20130;-74
2023/01/09 12:14:56;;;;;;;21.63;3.90;;;;;;;;;;5011466;28;20264;-75
2023/01/09 12:17:40;;;;;;;29.50;3.93;;;;;;;;;;4991114;28;20533;-74
2023/01/09 12:20:26;;;;;;;23.70;3.97;;;;;;;;;;5026209;28;20185;-75
2023/01/09 12:23:11;;;;;;;24.25;4.28;;;;;;;;;;5014322;28;20406;-73
2023/01/09 12:25:55;;;;;;;20.65;3.30;;;;;;;;;;5025088;28;20036;-74
2023/01/09 12:28:29;;;;;;;23.55;3.80;;;;;;;;;;5028240;28;20029;-73
2023/01/09 12:30:55;;;;;;;26.08;4.05;;;;;;;;;;5026561;28;20075;-75
2023/01/09 12:33:35;;;;;;;38.60;5.30;;;;;;;;;;5022971;28;20047;-71
2023/01/09 12:36:06;;;;;;;27.95;4.45;;;;;;;;;;5026506;28;20041;-74
2023/01/09 12:38:44;;;;;;;27.87;3.80;;;;;;;;;;5024538;28;20029;-72
2023/01/09 12:41:35;;;;;;;28.83;3.63;;;;;;;;;;5023387;28;20132;-72
2023/01/09 12:44:23;;;;;;;28.55;3.58;;;;;;;;;;5017939;28;20061;-72
2023/01/09 12:47:08;;;;;;;23.50;4.22;;;;;;;;;;5015136;28;20104;-71
2023/01/09 12:49:45;;;;;;;20.48;3.22;;;;;;;;;;5044743;28;20119;-73
2023/01/09 12:52:16;;;;;;;24.67;3.88;;;;;;;;;;5042471;28;20048;-72
2023/01/09 12:55:00;;;;;;;28.17;4.55;;;;;;;;;;5042105;28;20068;-72
2023/01/09 12:57:48;;;;;;;26.85;3.50;;;;;;;;;;5028406;28;20021;-73
2023/01/09 13:00:22;;;;;;;17.35;3.03;;;;;;;;;;5024341;28;20557;-73
2023/01/09 13:02:51;;;;;;;30.35;3.60;;;;;;;;;;5019946;28;20118;-72
2023/01/09 13:05:25;;;;;;;22.90;3.65;;;;;;;;;;5024219;28;20107;-72
2023/01/09 13:07:57;;;;;;;29.85;3.63;;;;;;;;;;5022674;28;20029;-72
2023/01/09 13:10:29;;;;;;;28.70;3.60;;;;;;;;;;5024073;28;20017;-72
2023/01/09 13:12:57;;;;;;;30.85;3.83;;;;;;;;;;5021821;28;20450;-72
2023/01/09 13:15:34;;;;;;;33.00;4.72;;;;;;;;;;5023764;28;20262;-73
2023/01/09 13:18:09;;;;;;;24.08;4.18;;;;;;;;;;5004234;28;20659;-72
2023/01/09 13:20:43;;;;;;;23.20;3.33;;;;;;;;;;5018612;28;20459;-72
2023/01/09 13:23:14;;;;;;;31.92;3.47;;;;;;;;;;5023721;28;20037;-72
2023/01/09 13:25:43;;;;;;;22.20;3.42;;;;;;;;;;5023568;28;20033;-72
2023/01/09 13:28:20;;;;;;;20.25;3.30;;;;;;;;;;5023164;28;20037;-72
2023/01/09 13:31:03;;;;;;;26.40;3.92;;;;;;;;;;5023834;28;20033;-72
2023/01/09 13:33:32;;;;;;;19.35;3.40;;;;;;;;;;5023536;28;20524;-72
2023/01/09 13:35:58;;;;;;;25.00;3.40;;;;;;;;;;5055321;28;20497;-73
2023/01/09 13:38:26;;;;;;;36.72;5.25;;;;;;;;;;5023810;28;20481;-72
2023/01/09 13:42:34;;;;;;;37.53;4.82;;;;;;;;;;5023438;28;20079;-73
2023/01/09 13:43:53;;;;;;;30.33;3.85;;;;;;;;;;5022643;28;20037;-72
2023/01/09 13:46:18;;;;;;;22.30;3.88;;;;;;;;;;5018090;28;20690;-72
2023/01/09 13:48:43;;;;;;;21.40;3.90;;;;;;;;;;4988653;28;20044;-71
2023/01/09 13:51:27;;;;;;;27.23;4.00;;;;;;;;;;5020263;28;20040;-73
2023/01/09 13:53:53;;;;;;;22.10;3.90;;;;;;;;;;4997599;28;20057;-72
2023/01/09 13:56:18;;;;;;;30.15;5.65;;;;;;;;;;5021788;28;20052;-73
2023/01/09 13:58:53;;;;;;;40.50;3.85;;;;;;;;;;5022233;28;20610;-72
2023/01/09 14:01:34;;;;;;;28.33;4.50;;;;;;;;;;5023565;28;20372;-71
2023/01/09 14:04:09;;;;;;;26.27;3.43;;;;;;;;;;5023173;28;20041;-72
2023/01/09 14:06:34;;;;;;;28.02;4.03;;;;;;;;;;5023011;28;20346;-72
2023/01/09 14:09:09;;;;;;;33.22;4.63;;;;;;;;;;5023667;28;20424;-73
2023/01/09 14:11:34;;;;;;;25.35;3.83;;;;;;;;;;5023445;28;20432;-73
2023/01/09 14:14:05;;;;;;;24.90;3.75;;;;;;;;;;5022562;28;20750;-72
2023/01/09 14:16:34;;;;;;;27.00;4.25;;;;;;;;;;5020862;28;20596;-72
2023/01/09 14:19:14;;;;;;;33.90;4.88;;;;;;;;;;5031417;28;20518;-75
2023/01/09 14:21:45;;;;;;;28.75;4.15;;;;;;;;;;5024693;28;20095;-72
2023/01/09 14:24:18;;;;;;;27.15;4.10;;;;;;;;;;5022907;28;20039;-72
2023/01/09 14:26:43;;;;;;;;;;;;;;;;;;5023318;28;20036;-72
2023/01/09 14:29:31;;;;;;;30.25;3.40;;;;;;;;;;5022911;28;19909;-73
2023/01/09 14:32:14;;;;;;;23.42;4.18;;;;;;;;;;5021690;28;20048;-73
2023/01/09 14:34:42;;;;;;;25.95;3.50;;;;;;;;;;5021100;28;20049;-72
2023/01/09 14:37:11;;;;;;;23.67;4.10;;;;;;;;;;5019986;28;20144;-72
2023/01/09 14:39:39;;;;;;;26.80;3.58;;;;;;;;;;5022786;28;20104;-72
2023/01/09 14:42:05;;;;;;;26.30;4.45;;;;;;;;;;5022012;28;20033;-73
2023/01/09 14:44:33;;;;;;;25.80;4.03;;;;;;;;;;5021938;28;20029;-72
2023/01/09 14:47:17;;;;;;;31.83;4.15;;;;;;;;;;5031760;28;20037;-72
2023/01/09 14:49:45;;;;;;;22.58;3.50;;;;;;;;;;5041993;28;20362;-72
2023/01/09 14:52:31;;;;;;;28.75;4.45;;;;;;;;;;5042222;28;20024;-72
2023/01/09 14:54:58;;;;;;;28.33;3.20;;;;;;;;;;5022589;28;20377;-73
2023/01/09 14:57:32;;;;;;;25.92;3.65;;;;;;;;;;5018937;28;20108;-73